createdAt,value
2023-07-31T00:02:45.824Z,1.50
2023-07-31T00:07:50.911Z,2.13
2023-07-31T00:12:58.741Z,2.30
2023-07-31T00:18:04.106Z,1.97
2023-07-31T00:23:09.119Z,1.90
2023-07-31T00:28:17.219Z,1.67
2023-07-31T00:33:22.269Z,1.97
2023-07-31T00:38:27.375Z,1.77
2023-07-31T00:43:35.098Z,1.63
2023-07-31T00:48:41.443Z,2.10
2023-07-31T00:53:47.100Z,2.10
2023-07-31T00:58:54.885Z,1.80
2023-07-31T01:04:01.267Z,1.70
2023-07-31T01:09:11.220Z,1.90
2023-07-31T01:14:18.890Z,1.90
2023-07-31T01:19:28.284Z,1.90
2023-07-31T01:24:40.126Z,1.60
2023-07-31T01:29:59.525Z,1.80
2023-07-31T01:35:05.049Z,1.77
2023-07-31T01:40:11.345Z,1.80
2023-07-31T01:45:19.386Z,1.87
2023-07-31T01:50:25.209Z,2.00
2023-07-31T01:55:30.286Z,1.67
2023-07-31T02:00:37.848Z,1.70
2023-07-31T02:05:48.825Z,1.80
2023-07-31T02:10:53.839Z,1.53
2023-07-31T02:16:01.475Z,1.60
2023-07-31T02:21:06.560Z,1.97
2023-07-31T02:26:11.716Z,1.93
2023-07-31T02:31:21.976Z,1.90
2023-07-31T02:36:28.167Z,2.20
2023-07-31T02:41:34.919Z,1.73
2023-07-31T02:46:43.280Z,1.80
2023-07-31T02:51:48.385Z,2.00
2023-07-31T02:56:53.428Z,1.50
2023-07-31T03:02:01.005Z,1.67
2023-07-31T03:07:07.970Z,2.00
2023-07-31T03:12:13.268Z,2.07
2023-07-31T03:17:20.904Z,1.90
2023-07-31T03:22:25.910Z,1.60
2023-07-31T03:27:31.188Z,1.97
2023-07-31T03:32:38.920Z,1.57
2023-07-31T03:37:44.041Z,1.60
2023-07-31T03:42:49.023Z,1.60
2023-07-31T03:47:56.795Z,1.87
2023-07-31T03:53:03.684Z,1.30
2023-07-31T03:58:08.662Z,1.53
2023-07-31T04:03:16.442Z,1.93
2023-07-31T04:08:21.545Z,3.77
2023-07-31T04:13:28.874Z,3.60
2023-07-31T04:18:36.547Z,2.70
2023-07-31T04:23:43.912Z,2.23
2023-07-31T04:28:48.937Z,3.87
2023-07-31T04:33:59.761Z,3.23
2023-07-31T04:39:08.518Z,3.50
2023-07-31T04:44:14.458Z,4.50
2023-07-31T04:49:24.113Z,2.10
2023-07-31T04:54:29.178Z,2.80
2023-07-31T04:59:34.359Z,2.27
2023-07-31T05:04:45.247Z,2.90
2023-07-31T05:09:50.418Z,2.30
2023-07-31T05:14:56.852Z,2.50
2023-07-31T05:20:05.130Z,3.57
2023-07-31T05:25:12.477Z,2.27
2023-07-31T05:30:19.656Z,2.90
2023-07-31T05:35:27.503Z,4.70
2023-07-31T05:40:32.639Z,4.47
2023-07-31T05:45:38.039Z,3.10
2023-07-31T05:50:48.072Z,3.27
2023-07-31T05:55:59.644Z,2.80
2023-07-31T06:01:05.891Z,2.43
2023-07-31T06:06:14.846Z,5.00
2023-07-31T06:11:20.298Z,4.30
2023-07-31T06:16:25.569Z,3.03
2023-07-31T06:21:44.837Z,4.43
2023-07-31T06:26:52.150Z,3.30
2023-07-31T06:31:57.241Z,5.03
2023-07-31T06:37:08.187Z,3.73
2023-07-31T06:42:15.450Z,3.60
2023-07-31T06:47:21.059Z,3.80
2023-07-31T06:52:31.237Z,3.93
2023-07-31T06:57:37.164Z,3.70
2023-07-31T07:02:42.302Z,3.93
2023-07-31T07:07:50.265Z,3.80
2023-07-31T07:12:57.882Z,3.57
2023-07-31T07:18:06.028Z,4.20
2023-07-31T07:23:13.983Z,4.63
2023-07-31T07:28:21.420Z,4.00
2023-07-31T07:33:28.173Z,4.13
2023-07-31T07:38:35.904Z,4.90
2023-07-31T07:43:40.922Z,5.20
2023-07-31T07:48:45.966Z,4.63
2023-07-31T07:53:55.865Z,4.70
2023-07-31T07:59:00.987Z,4.80
2023-07-31T08:04:13.349Z,2.77
2023-07-31T08:09:21.264Z,2.50
2023-07-31T08:14:26.368Z,2.50
2023-07-31T08:19:32.046Z,2.58
2023-07-31T08:24:39.871Z,2.27
2023-07-31T08:29:45.214Z,2.30
2023-07-31T08:34:50.590Z,2.43
2023-07-31T08:39:59.685Z,1.93
2023-07-31T08:45:09.938Z,2.63
2023-07-31T08:50:16.925Z,2.30
2023-07-31T08:55:25.728Z,2.43
2023-07-31T09:00:35.990Z,2.10
2023-07-31T09:05:47.906Z,2.13
2023-07-31T09:10:56.903Z,2.60
2023-07-31T09:16:03.684Z,2.10
2023-07-31T09:21:09.940Z,2.03
2023-07-31T09:26:33.483Z,2.57
2023-07-31T09:31:44.558Z,2.87
2023-07-31T09:36:54.857Z,2.33
2023-07-31T09:42:02.658Z,2.70
2023-07-31T09:47:08.292Z,2.57
2023-07-31T09:52:18.087Z,2.67
2023-07-31T09:57:27.934Z,2.60
2023-07-31T10:02:36.642Z,2.73
2023-07-31T10:07:43.277Z,1.93
2023-07-31T10:12:54.893Z,1.93
2023-07-31T10:18:01.569Z,2.57
2023-07-31T10:23:13.105Z,2.07
2023-07-31T10:28:21.540Z,2.43
2023-07-31T10:33:29.840Z,2.37
2023-07-31T10:38:37.627Z,2.67
2023-07-31T10:43:55.252Z,2.30
2023-07-31T10:49:05.775Z,2.40
2023-07-31T10:54:22.704Z,2.40
2023-07-31T10:59:39.284Z,2.10
2023-07-31T11:04:47.009Z,2.73
2023-07-31T11:09:52.181Z,2.10
2023-07-31T11:15:01.241Z,2.40
2023-07-31T11:20:06.631Z,2.37
2023-07-31T11:25:15.590Z,2.50
2023-07-31T11:30:24.900Z,3.07
2023-07-31T11:35:32.011Z,2.43
2023-07-31T11:40:55.461Z,2.20
2023-07-31T11:46:08.625Z,2.70
2023-07-31T11:51:16.550Z,2.33
2023-07-31T11:56:23.524Z,2.10
2023-07-31T12:01:39.369Z,2.10
2023-07-31T12:06:45.631Z,2.43
2023-07-31T12:11:52.741Z,2.40
2023-07-31T12:17:03.067Z,1.90
2023-07-31T12:22:15.610Z,2.20
2023-07-31T12:27:37.196Z,2.10
2023-07-31T12:32:46.955Z,1.93
2023-07-31T12:37:52.451Z,2.30
2023-07-31T12:42:57.544Z,1.87
2023-07-31T12:48:10.763Z,1.60
2023-07-31T12:53:21.438Z,1.60
2023-07-31T12:58:31.218Z,1.50
2023-07-31T13:03:39.501Z,1.87
2023-07-31T13:08:44.587Z,1.73
2023-07-31T13:13:51.936Z,2.00
2023-07-31T13:19:01.914Z,2.33
2023-07-31T13:24:08.753Z,1.87
2023-07-31T13:29:15.106Z,1.67
2023-07-31T13:34:22.836Z,2.13
2023-07-31T13:39:30.240Z,2.00
2023-07-31T13:44:35.676Z,1.83
2023-07-31T13:49:44.636Z,1.70
2023-07-31T13:54:51.880Z,1.53
2023-07-31T13:59:58.608Z,2.20
2023-07-31T14:05:09.427Z,1.97
2023-07-31T14:10:15.000Z,1.80
2023-07-31T14:15:20.113Z,1.90
2023-07-31T14:20:28.205Z,1.83
2023-07-31T14:25:33.606Z,1.87
2023-07-31T14:30:38.845Z,1.80
2023-07-31T14:35:46.980Z,2.20
2023-07-31T14:40:52.098Z,2.30
2023-07-31T14:46:00.616Z,1.70
2023-07-31T14:51:08.630Z,2.33
2023-07-31T14:56:13.743Z,2.10
2023-07-31T15:01:21.332Z,2.10
2023-07-31T15:06:31.302Z,1.93
2023-07-31T15:11:36.353Z,2.27
2023-07-31T15:16:41.627Z,1.97
2023-07-31T15:21:49.882Z,2.10
2023-07-31T15:26:55.163Z,2.13
2023-07-31T15:32:01.039Z,2.00
2023-07-31T15:37:09.024Z,2.10
2023-07-31T15:42:14.674Z,2.07
2023-07-31T15:47:20.490Z,1.70
2023-07-31T15:52:28.597Z,2.47
2023-07-31T15:57:33.775Z,2.07
2023-07-31T16:02:39.208Z,2.20
2023-07-31T16:07:47.087Z,1.93
2023-07-31T16:12:52.260Z,2.30
2023-07-31T16:17:58.305Z,2.20
2023-07-31T16:23:07.922Z,2.40
2023-07-31T16:28:13.120Z,2.17
2023-07-31T16:33:20.838Z,2.47
2023-07-31T16:38:28.726Z,1.80
2023-07-31T16:43:33.774Z,2.03
2023-07-31T16:48:39.035Z,1.77
2023-07-31T16:53:50.341Z,2.00
2023-07-31T16:58:56.234Z,2.30
2023-07-31T17:04:01.394Z,2.47
2023-07-31T17:09:09.304Z,2.77
2023-07-31T17:14:16.509Z,2.43
2023-07-31T17:19:21.911Z,2.13
2023-07-31T17:24:29.664Z,2.30
2023-07-31T17:29:34.781Z,2.63
2023-07-31T17:34:41.032Z,2.40
2023-07-31T17:39:49.237Z,2.47
2023-07-31T17:44:55.358Z,2.20
2023-07-31T17:50:01.753Z,2.63
2023-07-31T17:55:11.350Z,2.50
2023-07-31T18:00:17.175Z,2.63
2023-07-31T18:05:22.464Z,2.30
2023-07-31T18:10:31.395Z,2.90
2023-07-31T18:15:36.466Z,2.73
2023-07-31T18:20:41.617Z,2.53
2023-07-31T18:25:51.178Z,2.70
2023-07-31T18:31:01.431Z,2.80
2023-07-31T18:36:10.123Z,2.37
2023-07-31T18:41:17.841Z,2.47
2023-07-31T18:46:23.252Z,2.63
2023-07-31T18:51:29.185Z,2.50
2023-07-31T18:56:37.450Z,2.40
2023-07-31T19:01:45.327Z,2.63
2023-07-31T19:06:50.801Z,2.20
2023-07-31T19:11:58.768Z,2.93
2023-07-31T19:17:04.158Z,3.20
2023-07-31T19:22:10.222Z,2.77
2023-07-31T19:27:17.867Z,2.73
2023-07-31T19:32:22.999Z,2.40
2023-07-31T19:37:28.269Z,2.70
2023-07-31T19:42:37.482Z,3.07
2023-07-31T19:47:45.730Z,2.70
2023-07-31T19:52:50.798Z,2.70
2023-07-31T19:57:58.872Z,2.37
2023-07-31T20:03:04.083Z,2.47
2023-07-31T20:08:09.322Z,2.83
2023-07-31T20:13:17.027Z,2.93
2023-07-31T20:18:24.343Z,2.70
2023-07-31T20:23:41.964Z,2.77
2023-07-31T20:28:51.115Z,2.73
2023-07-31T20:33:57.274Z,3.03
2023-07-31T20:39:02.792Z,3.33
2023-07-31T20:44:10.617Z,2.83
2023-07-31T20:49:15.774Z,2.87
2023-07-31T20:54:21.551Z,3.37
2023-07-31T20:59:29.427Z,2.43
2023-07-31T21:04:36.469Z,3.30
2023-07-31T21:09:44.939Z,2.67
2023-07-31T21:14:52.680Z,3.10
2023-07-31T21:19:57.762Z,3.00
2023-07-31T21:25:02.863Z,2.90
2023-07-31T21:30:13.137Z,2.67
2023-07-31T21:35:18.202Z,3.00
2023-07-31T21:40:24.455Z,2.70
2023-07-31T21:45:32.222Z,2.60
2023-07-31T21:50:37.471Z,3.17
2023-07-31T21:55:42.862Z,3.00
2023-07-31T22:00:50.700Z,2.80
2023-07-31T22:05:56.023Z,3.00
2023-07-31T22:11:01.164Z,2.93
2023-07-31T22:16:11.468Z,3.20
2023-07-31T22:21:19.824Z,2.50
2023-07-31T22:26:25.345Z,3.33
2023-07-31T22:31:34.532Z,2.80
2023-07-31T22:36:40.698Z,3.03
2023-07-31T22:41:46.096Z,2.83
2023-07-31T22:46:54.028Z,2.80
2023-07-31T22:51:59.606Z,2.50
2023-07-31T22:57:04.883Z,3.03
2023-07-31T23:02:12.845Z,2.60
2023-07-31T23:07:19.177Z,2.80
2023-07-31T23:12:24.533Z,2.73
2023-07-31T23:17:32.315Z,2.50
2023-07-31T23:22:39.030Z,2.60
2023-07-31T23:27:45.635Z,3.00
2023-07-31T23:32:54.730Z,2.50
2023-07-31T23:37:59.895Z,2.60
2023-07-31T23:43:04.958Z,2.60
2023-07-31T23:48:12.678Z,2.83
2023-07-31T23:53:18.244Z,2.47
2023-07-31T23:58:23.638Z,2.60
